Time;durP1;ratioP1;P1;durP2;ratioP2;P2;SDS_P1;SDS_P2;PMS_P1;PMS_P2;Temp;Humidity;BMP_temperature;BMP_pressure;BME280_temperature;BME280_humidity;BME280_pressure;Samples;Min_cycle;Max_cycle;Signal;HPM_P1;HPM_P2
2023/10/17 00:00:54;;;;;;;2.53;2.33;;;;;;;6.03;51.22;93900.91;519859;28;790;-50
2023/10/17 00:01:13;;;;;;;2.47;2.27;;;;;;;6.02;51.13;93889.19;519735;28;1314;-48
2023/10/17 00:01:35;;;;;;;5.85;2.58;;;;;;;6.04;51.46;93889.44;519803;28;892;-50
2023/10/17 00:01:52;;;;;;;4.72;2.42;;;;;;;6.04;51.09;93894.19;519753;28;829;-49
2023/10/17 00:02:11;;;;;;;4.30;2.33;;;;;;;6.01;50.86;93887.72;519792;28;932;-51
2023/10/17 00:02:27;;;;;;;3.38;2.65;;;;;;;6.02;51.15;93888.47;519804;28;894;-50
2023/10/17 00:02:43;;;;;;;3.17;2.63;;;;;;;6.05;51.09;93888.19;519857;28;1008;-49
2023/10/17 00:02:59;;;;;;;3.20;2.70;;;;;;;6.07;50.89;93896.66;519829;28;913;-50
2023/10/17 00:03:14;;;;;;;3.40;2.83;;;;;;;6.07;50.95;93890.41;519798;28;886;-50
2023/10/17 00:03:30;;;;;;;3.70;2.90;;;;;;;6.01;50.66;93881.50;519782;28;1568;-50
2023/10/17 00:03:46;;;;;;;2.95;2.65;;;;;;;6.04;50.69;93888.72;526378;27;1053;-49
2023/10/17 00:04:26;;;;;;;2.40;2.15;;;;;;;6.10;50.65;93892.91;530566;27;927;-50
2023/10/17 00:04:41;;;;;;;2.42;2.10;;;;;;;6.10;50.87;93895.66;530585;27;848;-49
2023/10/17 00:04:59;;;;;;;2.93;2.30;;;;;;;6.10;50.59;93897.63;530585;27;855;-50
2023/10/17 00:05:14;;;;;;;2.78;2.28;;;;;;;6.11;50.97;93891.63;530559;27;829;-49
2023/10/17 00:05:29;;;;;;;3.15;2.35;;;;;;;6.13;50.86;93901.34;530588;27;856;-50
2023/10/17 00:05:45;;;;;;;3.07;2.17;;;;;;;6.13;51.13;93895.88;530521;27;876;-49
2023/10/17 00:06:02;;;;;;;3.15;2.40;;;;;;;5.89;51.16;93860.91;530540;27;833;-50
2023/10/17 00:06:17;;;;;;;3.47;2.63;;;;;;;6.11;50.95;93894.38;530536;27;872;-51
2023/10/17 00:06:32;;;;;;;4.00;2.58;;;;;;;6.09;50.75;93894.13;530632;27;832;-50
2023/10/17 00:06:50;;;;;;;3.40;2.37;;;;;;;6.12;51.20;93889.66;530572;27;816;-50
2023/10/17 00:07:08;;;;;;;4.05;2.90;;;;;;;6.13;50.83;93894.59;530505;27;865;-49
2023/10/17 00:07:23;;;;;;;3.92;2.85;;;;;;;6.10;50.83;93895.66;530588;27;1019;-49
2023/10/17 00:07:43;;;;;;;3.80;2.22;;;;;;;6.15;50.94;93893.38;528260;28;1590;-50
2023/10/17 00:07:59;;;;;;;6.85;2.75;;;;;;;6.16;50.77;93892.09;528265;28;927;-49
2023/10/17 00:08:14;;;;;;;6.13;2.78;;;;;;;6.17;50.83;93890.84;526247;28;805;-50
2023/10/17 00:08:32;;;;;;;3.03;2.33;;;;;;;6.16;51.03;93897.59;526193;28;777;-50
2023/10/17 00:08:50;;;;;;;3.05;2.55;;;;;;;6.17;50.96;93885.38;526187;28;836;-49
2023/10/17 00:09:09;;;;;;;3.80;2.60;;;;;;;6.16;51.08;93884.63;526217;28;896;-49
2023/10/17 00:09:25;;;;;;;3.63;2.78;;;;;;;5.95;51.13;93856.13;526186;28;896;-49
2023/10/17 00:09:42;;;;;;;3.70;2.63;;;;;;;6.18;51.07;93886.84;528258;28;1113;-50
2023/10/17 00:09:58;;;;;;;3.08;2.08;;;;;;;6.17;50.80;93882.63;528274;28;884;-49
2023/10/17 00:10:18;;;;;;;2.50;2.00;;;;;;;6.20;50.89;93892.56;530410;27;877;-49
2023/10/17 00:10:40;;;;;;;2.70;2.30;;;;;;;6.22;51.23;93890.06;530619;27;808;-49
2023/10/17 00:10:57;;;;;;;2.67;2.33;;;;;;;6.24;50.91;93896.53;530476;27;987;-49
2023/10/17 00:11:15;;;;;;;2.55;2.20;;;;;;;6.23;50.83;93884.09;530572;27;895;-49
2023/10/17 00:11:32;;;;;;;2.70;2.05;;;;;;;6.26;51.09;93887.81;530487;27;931;-49
2023/10/17 00:12:39;;;;;;;2.90;2.30;;;;;;;6.29;51.09;93890.25;530591;27;713;-48
2023/10/17 00:13:05;;;;;;;2.25;1.80;;;;;;;6.27;51.35;93881.81;528888;27;2388;-49
2023/10/17 00:13:38;;;;;;;2.85;2.17;;;;;;;6.30;51.08;93896.50;528392;28;942;-49
2023/10/17 00:14:11;;;;;;;6.65;1.98;;;;;;;6.27;51.30;93892.03;528378;28;873;-50
2023/10/17 00:14:34;;;;;;;2.95;2.22;;;;;;;6.28;51.30;93888.75;528354;28;894;-48
2023/10/17 00:15:27;;;;;;;2.58;1.95;;;;;;;6.28;51.13;93890.78;528374;28;746;-49
2023/10/17 00:15:44;;;;;;;2.67;1.85;;;;;;;6.29;51.30;93878.53;528416;28;891;-51
2023/10/17 00:16:00;;;;;;;2.40;1.83;;;;;;;6.11;51.01;93858.00;528315;28;1038;-50
2023/10/17 00:16:17;;;;;;;2.00;1.80;;;;;;;6.36;51.08;93886.97;528331;28;997;-49
2023/10/17 00:16:33;;;;;;;3.83;2.70;;;;;;;6.37;51.44;93888.44;528381;28;1077;-48
2023/10/17 00:16:48;;;;;;;3.70;2.55;;;;;;;6.38;51.37;93889.94;528409;28;1198;-49
2023/10/17 00:17:05;;;;;;;3.40;2.13;;;;;;;6.37;51.68;93888.44;528399;28;829;-50
2023/10/17 00:17:21;;;;;;;3.33;2.08;;;;;;;6.41;51.72;93888.19;528450;28;868;-49
2023/10/17 00:17:36;;;;;;;3.33;1.80;;;;;;;6.41;51.96;93880.69;528317;28;852;-50
2023/10/17 00:17:54;;;;;;;2.77;1.63;;;;;;;6.42;52.35;93878.69;528395;28;875;-47
2023/10/17 00:18:15;;;;;;;1.75;1.45;;;;;;;6.43;53.18;93889.13;528354;28;956;-50
2023/10/17 00:18:31;;;;;;;2.60;1.60;;;;;;;6.42;53.63;93879.44;528403;28;826;-50
2023/10/17 00:18:46;;;;;;;2.13;1.60;;;;;;;6.42;53.95;93882.19;528364;28;1240;-49
2023/10/17 00:19:04;;;;;;;1.98;1.35;;;;;;;6.43;53.93;93886.41;528400;28;869;-49
2023/10/17 00:19:42;;;;;;;2.75;1.30;;;;;;;6.45;53.45;93889.41;528297;28;1107;-49
2023/10/17 00:19:57;;;;;;;2.03;1.48;;;;;;;6.53;53.11;93893.06;527905;28;1383;-49
2023/10/17 00:20:17;;;;;;;4.57;1.87;;;;;;;6.55;53.14;93881.56;528400;28;809;-49
2023/10/17 00:20:37;;;;;;;6.35;2.63;;;;;;;6.56;53.09;93881.06;528334;28;901;-49
2023/10/17 00:20:53;;;;;;;3.67;1.83;;;;;;;6.50;52.83;93868.63;528345;28;1728;-50
2023/10/17 00:21:16;;;;;;;2.03;1.55;;;;;;;6.60;52.84;93880.78;528357;28;845;-50
2023/10/17 00:21:33;;;;;;;1.92;1.67;;;;;;;6.63;52.89;93883.25;528415;28;886;-49
2023/10/17 00:21:49;;;;;;;2.05;1.85;;;;;;;6.53;52.48;93864.88;528332;28;956;-49
2023/10/17 00:22:04;;;;;;;1.70;1.60;;;;;;;6.66;52.52;93886.97;528340;28;901;-49
2023/10/17 00:22:23;;;;;;;1.50;1.40;;;;;;;6.65;52.40;93877.22;528418;28;840;-50
2023/10/17 00:22:42;;;;;;;1.70;1.60;;;;;;;6.69;52.48;93880.47;526032;28;862;-48
2023/10/17 00:22:58;;;;;;;2.05;1.52;;;;;;;6.70;52.49;93877.19;526144;28;861;-49
2023/10/17 00:23:15;;;;;;;2.13;1.48;;;;;;;6.74;52.92;93883.13;526101;28;872;-49
2023/10/17 00:23:32;;;;;;;1.85;1.50;;;;;;;6.76;53.03;93885.38;526153;28;908;-49
2023/10/17 00:23:48;;;;;;;1.77;1.38;;;;;;;6.78;52.93;93880.84;527985;28;1133;-49
2023/10/17 00:24:12;;;;;;;1.48;1.23;;;;;;;6.80;52.82;93883.06;526285;28;1267;-49
2023/10/17 00:24:28;;;;;;;2.15;1.55;;;;;;;6.82;53.08;93872.34;528426;27;1284;-50
2023/10/17 00:24:47;;;;;;;4.53;1.80;;;;;;;6.81;52.58;93868.09;530550;27;797;-48
2023/10/17 00:25:09;;;;;;;4.30;1.50;;;;;;;6.85;52.65;93877.53;530181;27;1069;-49
2023/10/17 00:25:26;;;;;;;1.80;1.70;;;;;;;6.86;52.40;93879.03;530166;28;820;-49
2023/10/17 00:25:45;;;;;;;1.88;1.77;;;;;;;6.89;52.49;93880.00;530176;28;895;-49
2023/10/17 00:26:03;;;;;;;1.80;1.70;;;;;;;6.89;52.50;93877.25;530278;27;1368;-48
2023/10/17 00:26:18;;;;;;;1.50;1.40;;;;;;;6.92;52.39;93876.22;530452;27;877;-50
2023/10/17 00:26:40;;;;;;;1.30;1.20;;;;;;;6.94;52.41;93881.94;530502;27;821;-49
2023/10/17 00:26:56;;;;;;;1.33;1.23;;;;;;;6.85;52.31;93857.59;530510;27;873;-49
2023/10/17 00:27:12;;;;;;;1.40;1.30;;;;;;;6.97;52.53;93874.69;530312;27;1129;-49
2023/10/17 00:27:28;;;;;;;1.40;1.27;;;;;;;6.98;52.92;93870.66;530561;27;852;-50
2023/10/17 00:27:44;;;;;;;1.50;1.30;;;;;;;6.98;52.58;93874.16;530436;27;926;-49
2023/10/17 00:27:59;;;;;;;1.42;1.33;;;;;;;6.91;52.76;93863.03;530554;27;967;-49
2023/10/17 00:28:20;;;;;;;1.75;1.50;;;;;;;6.96;52.78;93868.44;530516;27;939;-49
2023/10/17 00:28:36;;;;;;;2.10;1.60;;;;;;;7.02;52.73;93871.88;530525;27;952;-51
2023/10/17 00:28:53;;;;;;;1.65;1.50;;;;;;;7.03;52.41;93872.63;530481;27;824;-49
2023/10/17 00:29:08;;;;;;;1.70;1.40;;;;;;;7.04;52.62;93877.59;530517;27;805;-49
2023/10/17 00:29:24;;;;;;;2.60;1.65;;;;;;;7.04;52.46;93868.63;530519;27;891;-48
2023/10/17 00:29:39;;;;;;;2.90;1.80;;;;;;;7.04;52.43;93874.84;530440;27;932;-49
2023/10/17 00:29:54;;;;;;;2.38;1.67;;;;;;;7.06;52.44;93877.81;530543;27;883;-49
2023/10/17 00:30:16;;;;;;;3.20;1.80;;;;;;;7.04;52.26;93874.84;530454;27;863;-49
2023/10/17 00:30:32;;;;;;;1.52;1.42;;;;;;;7.09;52.39;93873.31;530528;27;832;-50
2023/10/17 00:30:50;;;;;;;1.52;1.42;;;;;;;7.11;52.25;93877.03;530495;27;845;-49
2023/10/17 00:31:06;;;;;;;1.40;1.30;;;;;;;7.13;52.43;93873.75;530440;27;940;-48
2023/10/17 00:31:22;;;;;;;1.30;1.20;;;;;;;7.13;52.18;93877.25;530494;27;1696;-49
2023/10/17 00:31:37;;;;;;;1.40;1.30;;;;;;;7.07;52.13;93862.84;530449;27;1544;-50
2023/10/17 00:31:53;;;;;;;1.38;1.27;;;;;;;7.12;52.23;93872.28;530562;27;856;-49
2023/10/17 00:32:09;;;;;;;2.63;1.43;;;;;;;7.10;52.24;93867.31;530466;27;785;-50
2023/10/17 00:32:25;;;;;;;3.28;1.58;;;;;;;7.12;52.34;93872.28;530428;27;904;-49
2023/10/17 00:32:42;;;;;;;2.40;1.52;;;;;;;7.14;52.30;93876.00;530516;27;840;-52
2023/10/17 00:32:57;;;;;;;2.00;1.67;;;;;;;7.11;52.28;93860.56;530446;27;920;-50
2023/10/17 00:33:15;;;;;;;1.60;1.50;;;;;;;7.14;52.31;93867.75;530525;27;832;-49
2023/10/17 00:33:37;;;;;;;1.63;1.30;;;;;;;7.16;52.29;93867.25;530450;27;975;-49
2023/10/17 00:33:58;;;;;;;2.22;1.52;;;;;;;7.19;52.11;93866.22;530376;27;1918;-49
2023/10/17 00:34:13;;;;;;;2.25;1.67;;;;;;;7.19;51.83;93872.44;530506;27;912;-50
2023/10/17 00:34:29;;;;;;;1.90;1.70;;;;;;;7.20;51.92;93862.94;530438;27;1034;-48
2023/10/17 00:34:46;;;;;;;1.90;1.70;;;;;;;7.22;52.14;93871.41;530518;27;903;-49
2023/10/17 00:35:12;;;;;;;1.77;1.60;;;;;;;7.22;51.89;93870.66;530490;27;805;-48
2023/10/17 00:35:33;;;;;;;3.17;1.55;;;;;;;7.17;51.82;93858.47;530516;27;887;-49
2023/10/17 00:35:49;;;;;;;3.20;1.52;;;;;;;7.28;51.72;93863.84;530512;27;899;-49
2023/10/17 00:36:06;;;;;;;2.20;1.45;;;;;;;7.28;51.75;93869.34;530497;27;827;-49
2023/10/17 00:36:21;;;;;;;2.00;1.73;;;;;;;7.29;51.72;93862.59;530475;27;1661;-49
2023/10/17 00:36:37;;;;;;;1.80;1.70;;;;;;;7.27;51.72;93859.63;530530;27;801;-48
2023/10/17 00:37:07;;;;;;;2.47;1.47;;;;;;;7.30;51.74;93866.81;530451;27;769;-49
2023/10/17 00:37:30;;;;;;;1.98;1.55;;;;;;;7.26;51.70;93855.38;530473;27;849;-48
2023/10/17 00:38:18;;;;;;;2.50;1.48;;;;;;;7.34;51.64;93869.28;530482;27;999;-50
2023/10/17 00:38:29;;;;;;;2.20;1.70;;;;;;;7.35;51.68;93868.75;527261;27;1370;-49
2023/10/17 00:38:45;;;;;;;1.52;1.42;;;;;;;7.34;51.66;93858.31;530433;27;956;-48
2023/10/17 00:39:11;;;;;;;2.42;1.73;;;;;;;7.35;51.73;93863.28;530452;27;888;-49
2023/10/17 00:39:29;;;;;;;3.20;1.80;;;;;;;7.37;51.70;93860.00;530506;27;919;-49
2023/10/17 00:39:46;;;;;;;1.50;1.35;;;;;;;7.38;51.68;93864.25;530520;27;845;-50
2023/10/17 00:40:05;;;;;;;1.75;1.65;;;;;;;7.38;51.71;93865.00;530458;27;911;-49
2023/10/17 00:40:34;;;;;;;1.92;1.77;;;;;;;7.38;51.61;93861.50;530516;27;900;-49
2023/10/17 00:40:51;;;;;;;2.30;1.70;;;;;;;7.40;51.46;93862.47;530500;27;927;-49
2023/10/17 00:41:08;;;;;;;1.83;1.65;;;;;;;7.32;51.65;93852.59;530545;27;889;-49
2023/10/17 00:41:35;;;;;;;2.60;1.50;;;;;;;7.41;51.53;93866.69;530473;27;868;-48
2023/10/17 00:41:52;;;;;;;4.65;1.60;;;;;;;7.41;51.61;93858.44;530459;27;868;-49
2023/10/17 00:42:29;;;;;;;2.87;1.20;;;;;;;7.42;51.59;93859.19;530498;27;687;-49
2023/10/17 00:42:45;;;;;;;3.00;1.60;;;;;;;7.45;51.57;93855.44;530453;27;909;-49
2023/10/17 00:43:04;;;;;;;1.63;1.53;;;;;;;7.43;51.60;93855.91;530464;27;832;-49
2023/10/17 00:43:20;;;;;;;1.52;1.42;;;;;;;7.44;51.44;93860.16;528236;28;873;-49
2023/10/17 00:43:35;;;;;;;1.70;1.57;;;;;;;7.45;51.53;93858.88;528301;28;849;-48
2023/10/17 00:43:53;;;;;;;2.00;1.50;;;;;;;7.46;51.58;93865.13;528205;28;887;-49
2023/10/17 00:44:08;;;;;;;2.03;1.57;;;;;;;7.45;51.69;93855.44;528167;28;967;-49
2023/10/17 00:44:30;;;;;;;2.10;1.70;;;;;;;7.45;51.66;93866.41;528205;28;801;-49
2023/10/17 00:44:47;;;;;;;2.10;1.50;;;;;;;7.48;51.67;93862.59;528241;28;915;-49
2023/10/17 00:45:02;;;;;;;1.60;1.50;;;;;;;7.47;51.59;93861.13;528223;28;923;-48
2023/10/17 00:45:19;;;;;;;1.65;1.50;;;;;;;7.48;51.74;93857.13;530120;27;962;-49
2023/10/17 00:45:34;;;;;;;1.60;1.40;;;;;;;7.46;51.79;93867.88;530473;27;926;-50
2023/10/17 00:45:50;;;;;;;2.05;1.48;;;;;;;7.40;51.82;93859.72;530497;27;860;-49
2023/10/17 00:46:07;;;;;;;2.30;1.50;;;;;;;7.22;51.67;93827.47;530435;27;873;-50
2023/10/17 00:46:22;;;;;;;1.42;1.33;;;;;;;7.37;51.81;93846.25;530430;27;1515;-51
2023/10/17 00:46:37;;;;;;;2.00;1.57;;;;;;;7.45;51.83;93867.13;530432;27;869;-48
2023/10/17 00:46:53;;;;;;;2.10;1.60;;;;;;;7.45;51.74;93871.91;530474;27;797;-48
2023/10/17 00:47:13;;;;;;;1.60;1.50;;;;;;;7.45;51.80;93861.63;530435;27;978;-49
2023/10/17 00:47:28;;;;;;;1.38;1.27;;;;;;;7.45;51.74;93856.16;530444;27;1197;-49
2023/10/17 00:47:45;;;;;;;2.22;1.75;;;;;;;7.45;51.74;93856.16;530479;27;802;-49
2023/10/17 00:48:04;;;;;;;2.22;1.95;;;;;;;7.43;51.79;93855.16;530400;27;1269;-49
2023/10/17 00:48:22;;;;;;;3.10;1.80;;;;;;;7.46;51.71;93859.63;530434;27;904;-50
2023/10/17 00:48:38;;;;;;;2.10;1.58;;;;;;;7.42;51.74;93857.19;528198;28;910;-49
2023/10/17 00:48:56;;;;;;;2.42;1.70;;;;;;;7.21;51.88;93825.97;526152;28;872;-49
2023/10/17 00:49:11;;;;;;;2.78;1.77;;;;;;;7.43;52.04;93850.44;525943;28;1145;-48
2023/10/17 00:49:33;;;;;;;1.55;1.45;;;;;;;7.44;51.83;93860.16;526112;28;943;-50
2023/10/17 00:49:52;;;;;;;1.58;1.40;;;;;;;7.46;51.90;93862.38;523946;28;1021;-48
2023/10/17 00:50:12;;;;;;;1.88;1.30;;;;;;;7.44;51.81;93854.69;524024;28;1023;-48
2023/10/17 00:50:29;;;;;;;1.55;1.38;;;;;;;7.44;51.82;93860.16;524927;28;971;-49
2023/10/17 00:50:50;;;;;;;1.63;1.52;;;;;;;7.44;51.79;93862.91;526054;28;889;-49
2023/10/17 00:51:08;;;;;;;1.90;1.45;;;;;;;7.44;51.91;93854.69;526102;28;843;-50
2023/10/17 00:51:24;;;;;;;1.63;1.48;;;;;;;7.46;51.85;93857.63;524030;28;797;-49
2023/10/17 00:51:39;;;;;;;1.63;1.50;;;;;;;7.42;51.64;93851.69;524994;28;1064;-49
2023/10/17 00:51:56;;;;;;;1.67;1.55;;;;;;;7.49;51.73;93858.63;524011;28;901;-49
2023/10/17 00:52:34;;;;;;;1.88;1.48;;;;;;;7.51;51.73;93848.56;521885;28;975;-49
2023/10/17 00:52:49;;;;;;;1.70;1.33;;;;;;;7.52;51.75;93858.31;521874;28;897;-50
2023/10/17 00:53:06;;;;;;;1.50;1.38;;;;;;;7.45;51.69;93845.16;521989;28;787;-49
2023/10/17 00:53:22;;;;;;;1.42;1.33;;;;;;;7.53;51.61;93857.06;521868;28;869;-49
2023/10/17 00:53:40;;;;;;;1.27;1.17;;;;;;;7.53;51.71;93859.81;521925;28;925;-48
2023/10/17 00:54:00;;;;;;;1.60;1.40;;;;;;;7.54;51.74;93852.28;523948;28;899;-49
2023/10/17 00:54:18;;;;;;;1.45;1.33;;;;;;;7.54;51.59;93861.28;526095;28;887;-49
2023/10/17 00:54:35;;;;;;;1.50;1.40;;;;;;;7.31;51.64;93818.88;524055;28;862;-50
2023/10/17 00:54:53;;;;;;;4.00;1.75;;;;;;;7.56;51.73;93858.00;521944;28;932;-51
2023/10/17 00:55:11;;;;;;;3.55;1.65;;;;;;;7.56;51.61;93856.00;522214;28;889;-49
2023/10/17 00:55:27;;;;;;;1.40;1.20;;;;;;;7.57;51.58;93863.00;524031;28;835;-50
2023/10/17 00:56:06;;;;;;;2.05;1.40;;;;;;;7.58;51.74;93858.97;523970;28;853;-49
2023/10/17 00:56:20;;;;;;;1.63;1.38;;;;;;;7.58;51.74;93853.47;523858;28;1557;-50
2023/10/17 00:56:37;;;;;;;1.33;1.23;;;;;;;7.60;51.87;93853.69;523949;28;900;-49
2023/10/17 00:56:56;;;;;;;1.83;1.30;;;;;;;7.61;51.60;93857.19;523988;28;892;-49
2023/10/17 00:57:14;;;;;;;2.40;1.40;;;;;;;7.51;51.76;93831.38;523997;28;932;-48
2023/10/17 00:57:31;;;;;;;1.63;1.30;;;;;;;7.60;51.73;93850.22;524000;28;887;-48
2023/10/17 00:57:48;;;;;;;2.03;1.30;;;;;;;7.61;51.76;93844.22;526105;28;825;-49
2023/10/17 00:58:06;;;;;;;1.40;1.30;;;;;;;7.60;51.76;93848.19;523996;28;908;-50
2023/10/17 00:58:23;;;;;;;1.52;1.42;;;;;;;7.61;51.79;93846.22;524117;28;884;-49
2023/10/17 00:58:38;;;;;;;2.05;1.50;;;;;;;7.55;51.94;93843.53;526066;28;952;-48
2023/10/17 00:58:57;;;;;;;2.08;1.38;;;;;;;7.59;51.92;93852.22;526001;28;1678;-51
2023/10/17 00:59:13;;;;;;;2.50;1.67;;;;;;;7.59;51.93;93843.25;526056;28;1029;-50
2023/10/17 00:59:31;;;;;;;1.60;1.40;;;;;;;7.61;52.01;93857.94;526124;28;836;-48
2023/10/17 00:59:50;;;;;;;1.40;1.30;;;;;;;7.61;52.14;93846.97;526054;28;914;-49
2023/10/17 01:00:23;;;;;;;2.10;1.50;;;;;;;7.62;52.02;93853.91;528351;28;916;-49
2023/10/17 01:00:41;;;;;;;1.40;1.23;;;;;;;7.64;52.03;93856.16;528318;28;841;-49
2023/10/17 01:01:09;;;;;;;1.42;1.33;;;;;;;7.63;52.12;93860.91;528337;28;927;-49
2023/10/17 01:01:27;;;;;;;2.13;1.70;;;;;;;7.65;52.16;93844.66;528302;28;1005;-50
2023/10/17 01:01:42;;;;;;;3.50;1.90;;;;;;;7.65;52.40;93850.16;528303;28;992;-49
2023/10/17 01:02:06;;;;;;;2.87;1.80;;;;;;;7.65;52.18;93847.41;528296;28;1594;-49
2023/10/17 01:02:23;;;;;;;2.00;1.70;;;;;;;7.66;52.03;93845.41;526100;28;869;-48
2023/10/17 01:02:45;;;;;;;1.75;1.50;;;;;;;7.55;52.06;93832.56;525962;28;904;-48
2023/10/17 01:03:05;;;;;;;2.63;1.45;;;;;;;7.67;52.17;93846.88;526099;28;892;-49
2023/10/17 01:03:21;;;;;;;4.03;1.38;;;;;;;7.66;52.03;93845.41;525979;28;873;-49
2023/10/17 01:03:41;;;;;;;2.97;1.50;;;;;;;7.67;52.19;93848.91;526069;28;921;-49
2023/10/17 01:03:58;;;;;;;2.38;1.30;;;;;;;7.66;52.18;93842.66;526088;28;880;-50
2023/10/17 01:04:14;;;;;;;1.65;1.30;;;;;;;7.68;52.20;93845.63;527743;28;845;-48
2023/10/17 01:04:29;;;;;;;1.35;1.25;;;;;;;7.60;52.15;93828.97;528259;28;869;-50
2023/10/17 01:04:44;;;;;;;1.60;1.50;;;;;;;7.69;52.06;93836.09;528327;28;924;-50
2023/10/17 01:05:00;;;;;;;2.00;1.60;;;;;;;7.71;51.94;93839.06;528208;28;888;-50
2023/10/17 01:05:16;;;;;;;1.67;1.50;;;;;;;7.72;52.03;93846.06;528295;28;856;-48
2023/10/17 01:05:54;;;;;;;1.67;1.58;;;;;;;7.73;52.07;93844.06;528334;28;900;-49
2023/10/17 01:06:53;;;;;;;1.90;1.25;;;;;;;7.78;51.65;93857.72;528339;28;805;-48
2023/10/17 01:07:11;;;;;;;2.22;1.42;;;;;;;7.78;51.66;93852.22;528255;28;972;-48
2023/10/17 01:07:29;;;;;;;2.70;1.60;;;;;;;7.74;51.87;93843.53;528324;28;892;-49
2023/10/17 01:07:44;;;;;;;3.17;1.80;;;;;;;7.78;51.69;93848.72;528261;28;1102;-50
2023/10/17 01:08:00;;;;;;;2.50;1.63;;;;;;;7.75;52.02;93847.03;528266;28;838;-50
2023/10/17 01:08:15;;;;;;;1.85;1.48;;;;;;;7.78;51.97;93843.22;528347;28;809;-50
2023/10/17 01:08:39;;;;;;;1.50;1.40;;;;;;;7.79;52.01;93845.47;528357;28;770;-50
2023/10/17 01:08:56;;;;;;;1.90;1.55;;;;;;;7.78;52.12;93840.47;528305;28;912;-50
2023/10/17 01:09:20;;;;;;;2.38;1.88;;;;;;;7.80;52.11;93843.44;528141;28;2484;-49
2023/10/17 01:09:35;;;;;;;2.50;2.13;;;;;;;7.81;52.24;93842.19;528310;28;1611;-49
2023/10/17 01:09:55;;;;;;;1.90;1.67;;;;;;;7.82;52.39;93846.44;528237;28;875;-49
2023/10/17 01:10:13;;;;;;;2.17;1.58;;;;;;;7.71;52.35;93827.34;528312;28;856;-50
2023/10/17 01:10:29;;;;;;;1.50;1.38;;;;;;;7.84;52.40;93849.41;528343;28;865;-49
2023/10/17 01:10:45;;;;;;;1.50;1.40;;;;;;;7.81;52.34;93836.69;528324;28;908;-50
2023/10/17 01:11:01;;;;;;;1.92;1.48;;;;;;;7.79;52.39;93845.47;528350;28;817;-49
2023/10/17 01:11:20;;;;;;;3.22;1.58;;;;;;;7.82;52.20;93851.94;528331;28;860;-51
2023/10/17 01:11:39;;;;;;;2.05;1.85;;;;;;;7.76;52.19;93843.00;528148;28;904;-48
2023/10/17 01:11:54;;;;;;;2.53;1.90;;;;;;;7.83;51.94;93845.16;526086;28;900;-49
2023/10/17 01:12:10;;;;;;;6.00;1.60;;;;;;;7.83;52.36;93845.16;525968;28;910;-49
2023/10/17 01:12:27;;;;;;;7.90;1.67;;;;;;;7.81;52.20;93842.94;526042;28;931;-48
2023/10/17 01:12:53;;;;;;;4.28;1.73;;;;;;;7.75;52.19;93831.28;525920;28;854;-49
2023/10/17 01:13:08;;;;;;;2.95;1.63;;;;;;;7.81;51.99;93847.69;526012;28;829;-49
2023/10/17 01:13:27;;;;;;;2.63;1.50;;;;;;;7.81;51.98;93839.44;526659;28;885;-50
2023/10/17 01:13:42;;;;;;;1.50;1.30;;;;;;;7.83;51.71;93839.66;528091;28;1933;-50
2023/10/17 01:13:57;;;;;;;1.48;1.38;;;;;;;7.84;52.19;93843.91;528252;28;1134;-49
2023/10/17 01:14:19;;;;;;;1.90;1.50;;;;;;;7.84;52.05;93843.91;528376;28;872;-48
2023/10/17 01:14:35;;;;;;;2.55;1.70;;;;;;;7.83;52.10;93843.16;528314;28;820;-49
2023/10/17 01:14:51;;;;;;;2.10;1.50;;;;;;;7.83;52.10;93834.91;528306;28;921;-49
2023/10/17 01:15:06;;;;;;;1.40;1.30;;;;;;;7.84;52.18;93841.88;528277;28;897;-50
2023/10/17 01:15:24;;;;;;;1.73;1.63;;;;;;;7.84;52.36;93836.38;528339;28;809;-49
2023/10/17 01:15:40;;;;;;;2.38;1.98;;;;;;;7.84;52.13;93836.38;528211;28;912;-49
2023/10/17 01:15:57;;;;;;;1.95;1.70;;;;;;;7.84;52.14;93841.88;528424;28;809;-49
2023/10/17 01:16:16;;;;;;;1.50;1.40;;;;;;;7.84;51.99;93838.41;528290;28;936;-49
2023/10/17 01:16:34;;;;;;;1.70;1.50;;;;;;;7.83;52.28;93845.16;528298;28;840;-49
2023/10/17 01:16:52;;;;;;;2.10;1.60;;;;;;;7.82;52.03;93827.91;528359;28;868;-49
2023/10/17 01:17:12;;;;;;;3.95;1.75;;;;;;;7.82;52.49;93844.41;528240;28;932;-50
2023/10/17 01:17:29;;;;;;;2.05;1.58;;;;;;;7.81;52.54;93845.69;528227;28;952;-49
2023/10/17 01:17:44;;;;;;;1.92;1.50;;;;;;;7.80;52.60;93832.44;528145;28;951;-50
2023/10/17 01:18:05;;;;;;;1.42;1.33;;;;;;;7.81;52.53;93834.69;528341;28;809;-49
2023/10/17 01:18:20;;;;;;;1.70;1.50;;;;;;;7.84;52.84;93841.16;528334;28;1073;-48
2023/10/17 01:18:37;;;;;;;1.73;1.50;;;;;;;7.83;52.75;93840.41;528356;28;781;-48
2023/10/17 01:18:53;;;;;;;2.45;1.70;;;;;;;7.84;52.94;93838.41;528294;28;889;-49
2023/10/17 01:19:11;;;;;;;2.58;1.67;;;;;;;7.84;52.84;93836.38;528346;28;924;-49
2023/10/17 01:19:27;;;;;;;2.08;1.50;;;;;;;7.85;52.75;93842.63;528301;28;885;-49
2023/10/17 01:19:42;;;;;;;1.70;1.60;;;;;;;7.86;52.79;93838.63;528342;28;935;-49
2023/10/17 01:19:59;;;;;;;1.60;1.50;;;;;;;7.84;52.80;93835.66;528227;28;849;-50
2023/10/17 01:20:20;;;;;;;1.63;1.48;;;;;;;7.87;52.74;93840.09;528320;28;932;-49
2023/10/17 01:20:36;;;;;;;1.92;1.60;;;;;;;7.87;52.52;93842.84;528338;28;900;-49
2023/10/17 01:20:53;;;;;;;1.47;1.37;;;;;;;7.87;52.44;93845.59;528279;28;861;-48
2023/10/17 01:21:12;;;;;;;1.63;1.30;;;;;;;7.81;52.53;93831.19;528327;28;923;-49
2023/10/17 01:21:28;;;;;;;1.90;1.70;;;;;;;7.85;52.43;93834.38;528235;28;901;-49
2023/10/17 01:21:43;;;;;;;2.07;1.80;;;;;;;7.85;52.50;93839.88;528363;28;781;-49
2023/10/17 01:21:59;;;;;;;1.55;1.45;;;;;;;7.88;52.49;93841.59;528376;28;879;-49
2023/10/17 01:22:15;;;;;;;1.58;1.48;;;;;;;7.86;52.43;93836.59;528218;28;869;-49
2023/10/17 01:22:32;;;;;;;2.03;1.83;;;;;;;7.87;52.54;93842.84;528328;28;922;-50
2023/10/17 01:22:48;;;;;;;2.13;1.90;;;;;;;7.86;52.51;93835.88;528210;28;991;-49
2023/10/17 01:23:04;;;;;;;1.80;1.70;;;;;;;7.84;52.46;93839.13;528341;28;908;-48
2023/10/17 01:23:20;;;;;;;2.00;1.55;;;;;;;7.78;52.52;93832.97;528333;28;1795;-49
2023/10/17 01:23:35;;;;;;;2.60;1.55;;;;;;;7.84;52.74;93844.63;528467;27;1121;-49
2023/10/17 01:23:51;;;;;;;2.73;1.60;;;;;;;7.82;52.95;93843.69;530402;27;797;-50
2023/10/17 01:24:07;;;;;;;3.35;1.73;;;;;;;7.83;53.01;93845.16;528062;28;1120;-50
2023/10/17 01:24:22;;;;;;;3.03;1.53;;;;;;;7.82;53.08;93832.69;526943;28;1499;-49
2023/10/17 01:24:40;;;;;;;1.45;1.30;;;;;;;7.83;53.16;93836.91;528148;28;778;-49
2023/10/17 01:24:56;;;;;;;1.70;1.45;;;;;;;7.82;52.92;93835.44;528148;28;912;-50
2023/10/17 01:25:50;;;;;;;2.00;1.80;;;;;;;7.74;52.87;93826.28;528175;28;692;-49
2023/10/17 01:26:08;;;;;;;2.30;1.75;;;;;;;7.81;53.08;93831.19;527953;28;1143;-50
2023/10/17 01:26:24;;;;;;;2.80;2.13;;;;;;;7.88;52.99;93844.34;530451;27;785;-50
2023/10/17 01:26:43;;;;;;;3.17;1.90;;;;;;;7.87;53.05;93837.34;530348;27;833;-49
2023/10/17 01:27:05;;;;;;;1.75;1.60;;;;;;;7.80;53.23;93829.69;530346;27;1302;-49
2023/10/17 01:27:21;;;;;;;1.42;1.25;;;;;;;7.88;53.02;93845.09;530381;27;888;-49
2023/10/17 01:27:40;;;;;;;1.83;1.47;;;;;;;7.79;53.07;93834.47;530399;27;848;-49
2023/10/17 01:27:57;;;;;;;1.98;1.63;;;;;;;7.88;53.28;93849.84;530311;27;932;-49
2023/10/17 01:28:12;;;;;;;1.60;1.50;;;;;;;7.87;53.23;93843.59;530338;27;849;-49
2023/10/17 01:28:29;;;;;;;1.67;1.33;;;;;;;7.80;53.36;93835.19;530393;27;860;-49
2023/10/17 01:28:45;;;;;;;1.85;1.30;;;;;;;7.87;53.15;93849.09;530383;27;805;-49
2023/10/17 01:29:02;;;;;;;1.65;1.40;;;;;;;7.87;53.19;93846.34;530340;27;996;-49
2023/10/17 01:29:18;;;;;;;2.03;1.63;;;;;;;7.74;53.16;93823.53;530408;27;853;-48
2023/10/17 01:29:34;;;;;;;2.33;1.70;;;;;;;7.89;53.16;93845.81;530392;27;853;-49
2023/10/17 01:29:49;;;;;;;2.27;1.60;;;;;;;7.90;53.16;93850.06;530379;27;915;-49
2023/10/17 01:30:05;;;;;;;2.70;1.60;;;;;;;7.89;53.30;93849.31;530343;27;1146;-50
2023/10/17 01:30:22;;;;;;;2.95;1.92;;;;;;;7.90;53.21;93850.81;530311;27;829;-48
2023/10/17 01:30:37;;;;;;;2.42;1.90;;;;;;;7.91;53.16;93848.78;530300;27;909;-50
2023/10/17 01:30:55;;;;;;;1.60;1.33;;;;;;;7.88;53.49;93847.84;530425;27;829;-49
2023/10/17 01:31:14;;;;;;;1.42;1.33;;;;;;;7.88;53.51;93852.59;530289;27;928;-48
2023/10/17 01:31:31;;;;;;;1.42;1.33;;;;;;;7.89;53.48;93846.56;530342;27;990;-49
2023/10/17 01:31:48;;;;;;;1.83;1.60;;;;;;;7.90;53.48;93841.81;530391;27;825;-50
2023/10/17 01:32:05;;;;;;;2.17;1.58;;;;;;;7.90;53.45;93850.06;530380;27;880;-50
2023/10/17 01:32:23;;;;;;;1.50;1.38;;;;;;;7.90;53.37;93850.81;530364;27;814;-50
2023/10/17 01:32:38;;;;;;;1.45;1.35;;;;;;;7.91;53.35;93848.78;530413;27;797;-50
2023/10/17 01:32:54;;;;;;;2.57;2.00;;;;;;;7.93;53.37;93849.00;530187;27;1170;-49